createdAt,value
2019-04-14T00:01:39.115Z,25.68
2019-04-14T00:04:22.671Z,24.80
2019-04-14T00:06:50.461Z,26.02
2019-04-14T00:09:20.459Z,25.70
2019-04-14T00:11:48.176Z,26.57
2019-04-14T00:14:16.396Z,25.80
2019-04-14T00:16:44.593Z,26.30
2019-04-14T00:19:12.994Z,26.52
2019-04-14T00:21:41.108Z,27.07
2019-04-14T00:24:09.487Z,26.90
2019-04-14T00:26:37.921Z,27.00
2019-04-14T00:29:06.708Z,26.00
2019-04-14T00:31:34.910Z,26.10
2019-04-14T00:34:07.115Z,25.62
2019-04-14T00:36:41.644Z,25.50
2019-04-14T00:39:29.400Z,27.37
2019-04-14T00:42:06.584Z,26.57
2019-04-14T00:44:43.026Z,28.52
2019-04-14T00:47:31.046Z,29.02
2019-04-14T00:49:59.408Z,30.32
2019-04-14T00:52:27.621Z,29.90
2019-04-14T00:54:55.080Z,30.60
2019-04-14T00:57:22.476Z,31.20
2019-04-14T00:59:50.789Z,30.08
2019-04-14T01:02:18.922Z,29.98
2019-04-14T01:04:46.938Z,30.57
2019-04-14T01:07:15.158Z,30.90
2019-04-14T01:09:42.636Z,30.68
2019-04-14T01:12:10.292Z,30.37
2019-04-14T01:14:38.789Z,30.08
2019-04-14T01:17:06.937Z,27.77
2019-04-14T01:19:35.241Z,27.93
2019-04-14T01:22:03.209Z,29.42
2019-04-14T01:24:31.554Z,28.00
2019-04-14T01:26:59.526Z,28.87
2019-04-14T01:29:27.701Z,29.42
2019-04-14T01:31:55.799Z,28.23
2019-04-14T01:34:23.841Z,26.97
2019-04-14T01:36:51.832Z,28.20
2019-04-14T01:39:19.769Z,28.38
2019-04-14T01:41:47.802Z,27.85
2019-04-14T01:44:15.614Z,27.22
2019-04-14T01:46:43.461Z,28.30
2019-04-14T01:49:11.499Z,27.15
2019-04-14T01:52:08.163Z,26.62
2019-04-14T01:54:49.392Z,26.87
2019-04-14T01:57:35.016Z,28.62
2019-04-14T02:00:31.609Z,28.80
2019-04-14T02:02:59.726Z,28.07
2019-04-14T02:05:27.765Z,28.00
2019-04-14T02:07:55.880Z,26.62
2019-04-14T02:10:23.865Z,27.60
2019-04-14T02:12:51.799Z,26.68
2019-04-14T02:15:20.049Z,26.17
2019-04-14T02:17:48.145Z,26.62
2019-04-14T02:20:16.363Z,26.33
2019-04-14T02:22:44.095Z,26.82
2019-04-14T02:25:12.097Z,26.35
2019-04-14T02:27:40.672Z,27.02
2019-04-14T02:30:10.254Z,25.90
2019-04-14T02:33:07.396Z,27.05
2019-04-14T02:35:40.540Z,25.97
2019-04-14T02:38:13.705Z,27.60
2019-04-14T02:40:36.548Z,27.02
2019-04-14T02:45:35.326Z,25.85
2019-04-14T02:48:03.612Z,26.02
2019-04-14T02:50:27.212Z,26.60
2019-04-14T02:53:01.856Z,27.00
2019-04-14T02:55:25.300Z,26.95
2019-04-14T02:58:01.757Z,26.27
2019-04-14T03:00:41.200Z,25.75
2019-04-14T03:02:47.523Z,27.32
2019-04-14T03:05:32.176Z,28.65
2019-04-14T03:07:54.178Z,27.67
2019-04-14T03:10:27.658Z,26.15
2019-04-14T03:13:01.722Z,28.70
2019-04-14T03:18:20.405Z,28.35
2019-04-14T03:20:47.488Z,27.05
2019-04-14T03:23:53.499Z,27.65
2019-04-14T03:26:11.979Z,27.45
2019-04-14T03:36:44.144Z,30.88
2019-04-14T03:38:50.233Z,28.15
2019-04-14T03:41:17.160Z,28.07
2019-04-14T03:43:38.829Z,29.27
2019-04-14T03:46:17.446Z,29.00
2019-04-14T03:48:55.536Z,29.67
2019-04-14T03:51:26.247Z,29.98
2019-04-14T03:53:38.661Z,28.75
2019-04-14T03:56:20.050Z,28.98
2019-04-14T03:58:48.668Z,30.70
2019-04-14T04:01:17.180Z,31.07
2019-04-14T04:03:45.685Z,29.05
2019-04-14T04:06:13.945Z,30.23
2019-04-14T04:08:42.050Z,29.25
2019-04-14T04:11:10.468Z,29.95
2019-04-14T04:13:38.993Z,29.65
2019-04-14T04:16:15.898Z,30.08
2019-04-14T04:18:50.875Z,29.87
2019-04-14T04:21:29.803Z,30.60
2019-04-14T04:24:02.138Z,29.42
2019-04-14T04:26:36.578Z,30.10
2019-04-14T04:29:29.339Z,30.92
2019-04-14T04:32:16.460Z,31.10
2019-04-14T04:34:57.516Z,28.75
2019-04-14T04:37:30.139Z,29.85
2019-04-14T04:40:00.659Z,28.92
2019-04-14T04:42:28.694Z,30.85
2019-04-14T04:44:56.077Z,29.48
2019-04-14T04:47:23.640Z,31.20
2019-04-14T04:49:51.217Z,31.37
2019-04-14T04:52:19.134Z,32.83
2019-04-14T04:54:47.402Z,32.35
2019-04-14T04:57:15.547Z,31.55
2019-04-14T04:59:43.121Z,31.57
2019-04-14T05:02:11.265Z,32.55
2019-04-14T05:04:39.418Z,33.20
2019-04-14T05:07:07.777Z,34.15
2019-04-14T05:09:53.475Z,34.30
2019-04-14T05:12:39.270Z,34.03
2019-04-14T05:15:27.030Z,35.10
2019-04-14T05:17:54.400Z,33.40
2019-04-14T05:20:22.475Z,33.75
2019-04-14T05:22:50.807Z,34.92
2019-04-14T05:25:18.993Z,35.03
2019-04-14T05:27:47.355Z,35.13
2019-04-14T05:30:15.411Z,36.75
2019-04-14T05:32:43.454Z,34.92
2019-04-14T05:35:11.930Z,37.35
2019-04-14T05:37:40.087Z,36.23
2019-04-14T05:40:08.146Z,35.48
2019-04-14T05:42:36.248Z,35.52
2019-04-14T05:45:04.476Z,37.67
2019-04-14T05:47:32.611Z,36.23
2019-04-14T05:50:00.915Z,38.08
2019-04-14T05:52:29.488Z,35.73
2019-04-14T05:54:57.874Z,36.65
2019-04-14T05:57:26.236Z,36.70
2019-04-14T05:59:54.756Z,36.80
2019-04-14T06:02:22.318Z,36.53
2019-04-14T06:04:50.407Z,34.95
2019-04-14T06:07:17.636Z,35.68
2019-04-14T06:09:44.916Z,35.85
2019-04-14T06:12:12.126Z,35.58
2019-04-14T06:14:39.388Z,34.88
2019-04-14T06:17:06.580Z,35.38
2019-04-14T06:19:38.025Z,34.13
2019-04-14T06:22:02.952Z,34.60
2019-04-14T06:24:30.257Z,35.15
2019-04-14T06:26:57.909Z,34.75
2019-04-14T06:29:25.096Z,34.78
2019-04-14T06:32:14.753Z,36.20
2019-04-14T06:35:10.376Z,33.90
2019-04-14T06:38:06.093Z,34.05
2019-04-14T06:40:37.618Z,33.83
2019-04-14T06:43:04.956Z,33.33
2019-04-14T06:45:32.166Z,30.82
2019-04-14T06:47:59.363Z,29.90
2019-04-14T06:50:26.557Z,31.42
2019-04-14T06:52:53.761Z,28.75
2019-04-14T06:55:21.077Z,27.10
2019-04-14T06:57:48.293Z,28.27
2019-04-14T07:00:15.630Z,27.15
2019-04-14T07:02:42.834Z,28.17
2019-04-14T07:05:10.044Z,27.65
2019-04-14T07:07:37.360Z,27.10
2019-04-14T07:10:04.847Z,27.13
2019-04-14T07:12:32.157Z,28.30
2019-04-14T07:14:59.366Z,25.27
2019-04-14T07:17:26.693Z,26.75
2019-04-14T07:20:01.980Z,27.13
2019-04-14T07:22:23.234Z,25.48
2019-04-14T07:24:50.554Z,26.23
2019-04-14T07:27:18.382Z,27.93
2019-04-14T07:29:50.758Z,26.07
2019-04-14T07:32:46.111Z,23.85
2019-04-14T07:35:31.504Z,24.40
2019-04-14T07:38:16.052Z,23.60
2019-04-14T07:41:02.917Z,24.50
2019-04-14T07:43:37.232Z,25.37
2019-04-14T07:46:36.167Z,23.67
2019-04-14T07:49:12.188Z,23.60
2019-04-14T07:51:52.209Z,24.20
2019-04-14T07:54:25.457Z,24.43
2019-04-14T07:57:27.213Z,21.97
2019-04-14T08:00:16.744Z,23.07
2019-04-14T08:02:51.251Z,22.53
2019-04-14T08:05:22.199Z,23.00
2019-04-14T08:07:50.258Z,23.80
2019-04-14T08:10:17.465Z,22.67
2019-04-14T08:12:45.097Z,20.87
2019-04-14T08:15:12.527Z,20.17
2019-04-14T08:17:39.749Z,20.77
2019-04-14T08:20:07.234Z,19.50
2019-04-14T08:22:34.559Z,18.33
2019-04-14T08:25:01.871Z,18.90
2019-04-14T08:27:29.168Z,18.47
2019-04-14T08:29:56.513Z,19.80
2019-04-14T08:32:23.805Z,18.37
2019-04-14T08:34:51.003Z,19.20
2019-04-14T08:37:18.208Z,18.27
2019-04-14T08:39:45.444Z,17.97
2019-04-14T08:42:30.748Z,18.63
2019-04-14T08:45:01.321Z,17.77
2019-04-14T08:47:53.765Z,18.73
2019-04-14T08:50:41.285Z,18.77
2019-04-14T08:53:12.192Z,19.00
2019-04-14T08:56:01.772Z,19.03
2019-04-14T08:58:51.429Z,18.40
2019-04-14T09:01:36.423Z,16.97
2019-04-14T09:04:17.998Z,17.17
2019-04-14T09:07:10.436Z,17.27
2019-04-14T09:09:46.565Z,16.97
2019-04-14T09:12:20.009Z,16.73
2019-04-14T09:14:56.954Z,16.73
2019-04-14T09:17:16.502Z,17.20
2019-04-14T09:19:43.813Z,16.33
2019-04-14T09:22:11.137Z,15.20
2019-04-14T09:24:38.345Z,15.57
2019-04-14T09:27:05.659Z,15.47
2019-04-14T09:29:32.891Z,15.83
2019-04-14T09:32:00.441Z,15.00
2019-04-14T09:34:27.748Z,15.93
2019-04-14T09:36:55.162Z,16.03
2019-04-14T09:39:22.499Z,15.87
2019-04-14T09:41:49.787Z,15.30
2019-04-14T09:44:16.981Z,15.67
2019-04-14T09:46:44.293Z,16.03
2019-04-14T09:49:11.601Z,15.90
2019-04-14T09:51:38.939Z,15.97
2019-04-14T09:54:06.129Z,15.70
2019-04-14T09:56:33.433Z,15.07
2019-04-14T09:59:00.745Z,15.33
2019-04-14T10:01:28.177Z,14.80
2019-04-14T10:03:55.498Z,16.37
2019-04-14T10:06:22.801Z,16.27
2019-04-14T10:08:50.137Z,15.80
2019-04-14T10:11:17.409Z,16.33
2019-04-14T10:13:44.621Z,15.63
2019-04-14T10:16:11.821Z,14.50
2019-04-14T10:18:39.043Z,14.67
2019-04-14T10:21:16.817Z,14.47
2019-04-14T10:23:35.497Z,15.20
2019-04-14T10:26:02.876Z,13.63
2019-04-14T10:28:30.061Z,14.33
2019-04-14T10:30:57.841Z,14.40
2019-04-14T10:33:25.071Z,14.83
2019-04-14T10:35:52.579Z,14.33
2019-04-14T10:38:19.885Z,13.73
2019-04-14T10:40:47.105Z,13.23
2019-04-14T10:43:14.419Z,13.37
2019-04-14T10:45:41.745Z,13.17
2019-04-14T10:48:09.058Z,13.27
2019-04-14T10:50:36.275Z,15.60
2019-04-14T10:53:03.697Z,13.57
2019-04-14T10:55:31.009Z,14.17
2019-04-14T10:57:58.221Z,13.93
2019-04-14T11:00:25.564Z,13.93
2019-04-14T11:02:52.776Z,13.10
2019-04-14T11:05:20.073Z,13.37
2019-04-14T11:07:47.404Z,13.40
2019-04-14T11:10:14.829Z,12.53
2019-04-14T11:12:42.053Z,12.20
2019-04-14T11:15:09.785Z,12.57
2019-04-14T11:17:37.092Z,12.00
2019-04-14T11:20:05.063Z,11.80
2019-04-14T11:22:32.261Z,11.73
2019-04-14T11:24:59.594Z,11.60
2019-04-14T11:27:26.914Z,12.20
2019-04-14T11:29:54.207Z,10.80
2019-04-14T11:32:56.112Z,11.50
2019-04-14T11:35:27.097Z,10.43
2019-04-14T11:38:01.824Z,10.70
2019-04-14T11:40:34.670Z,10.80
2019-04-14T11:43:02.097Z,11.33
2019-04-14T11:45:29.469Z,11.13
2019-04-14T11:47:56.710Z,11.20
2019-04-14T11:50:24.023Z,12.07
2019-04-14T11:52:51.222Z,11.40
2019-04-14T11:55:18.444Z,11.23
2019-04-14T11:57:45.671Z,11.20
2019-04-14T12:00:33.132Z,11.23
2019-04-14T12:03:19.269Z,11.40
2019-04-14T12:06:04.714Z,10.97
2019-04-14T12:08:45.592Z,11.67
2019-04-14T12:11:13.040Z,11.30
2019-04-14T12:13:40.373Z,12.23
2019-04-14T12:16:07.684Z,11.60
2019-04-14T12:18:35.056Z,11.93
2019-04-14T12:21:02.262Z,11.90
2019-04-14T12:23:29.574Z,12.37
2019-04-14T12:26:05.263Z,12.23
2019-04-14T12:28:26.256Z,12.30
2019-04-14T12:30:53.542Z,12.10
2019-04-14T12:33:20.842Z,12.27
2019-04-14T12:35:48.038Z,12.27
2019-04-14T12:38:15.346Z,12.17
2019-04-14T12:40:42.575Z,12.20
2019-04-14T12:43:28.284Z,12.07
2019-04-14T12:46:13.533Z,11.47
2019-04-14T12:48:54.771Z,11.00
2019-04-14T12:51:50.974Z,10.73
2019-04-14T12:54:18.283Z,10.53
2019-04-14T12:56:45.588Z,10.70
2019-04-14T12:59:18.690Z,10.43
2019-04-14T13:02:06.218Z,10.60
2019-04-14T13:04:33.536Z,10.13
2019-04-14T13:07:00.835Z,10.60
2019-04-14T13:09:28.200Z,10.30
2019-04-14T13:11:55.533Z,11.43
2019-04-14T13:14:22.826Z,9.87
2019-04-14T13:16:50.141Z,10.60
2019-04-14T13:19:17.462Z,9.83
2019-04-14T13:21:44.683Z,10.53
2019-04-14T13:24:12.232Z,11.00
2019-04-14T13:26:39.537Z,10.37
2019-04-14T13:29:06.829Z,10.43
2019-04-14T13:31:34.132Z,11.10
2019-04-14T13:34:01.420Z,10.13
2019-04-14T13:36:28.677Z,10.87
2019-04-14T13:38:55.968Z,10.37
2019-04-14T13:41:23.266Z,11.20
2019-04-14T13:43:50.464Z,10.57
2019-04-14T13:46:17.767Z,10.83
2019-04-14T13:48:45.084Z,11.77
2019-04-14T13:51:12.399Z,11.53
2019-04-14T13:53:39.633Z,11.70
2019-04-14T13:56:06.961Z,11.93
2019-04-14T13:58:37.095Z,11.83
2019-04-14T14:01:03.621Z,12.07
2019-04-14T14:03:30.835Z,11.53
2019-04-14T14:05:58.192Z,12.10
2019-04-14T14:08:25.493Z,11.67
2019-04-14T14:10:56.329Z,12.60
2019-04-14T14:13:43.145Z,13.43
2019-04-14T14:16:30.488Z,12.03
2019-04-14T14:19:08.715Z,11.77
2019-04-14T14:21:49.751Z,12.20
2019-04-14T14:24:45.364Z,12.27
2019-04-14T14:27:12.723Z,11.90
2019-04-14T14:29:40.013Z,11.90
2019-04-14T14:32:14.080Z,12.10
2019-04-14T14:34:41.378Z,12.27
2019-04-14T14:37:08.691Z,12.03
2019-04-14T14:39:36.092Z,11.87
2019-04-14T14:42:03.408Z,12.17
2019-04-14T14:44:38.412Z,12.03
2019-04-14T14:47:14.306Z,11.13
2019-04-14T14:49:59.380Z,12.13
2019-04-14T14:52:26.596Z,12.07
2019-04-14T14:54:53.890Z,10.67
2019-04-14T14:57:21.216Z,11.10
2019-04-14T14:59:48.544Z,11.73
2019-04-14T15:02:15.866Z,11.63
2019-04-14T15:04:43.263Z,12.07
2019-04-14T15:07:10.577Z,11.00
2019-04-14T15:09:37.791Z,11.30
2019-04-14T15:12:05.004Z,12.67
2019-04-14T15:14:32.282Z,12.73
2019-04-14T15:16:59.687Z,11.63
2019-04-14T15:19:26.885Z,11.67
2019-04-14T15:21:54.146Z,12.80
2019-04-14T15:24:21.460Z,12.23
2019-04-14T15:26:48.758Z,12.50
2019-04-14T15:29:16.160Z,12.17
2019-04-14T15:31:43.534Z,12.77
2019-04-14T15:34:10.908Z,12.50
2019-04-14T15:36:38.112Z,11.87
2019-04-14T15:39:06.753Z,12.17
2019-04-14T15:41:34.074Z,13.27
2019-04-14T15:44:01.397Z,12.57
2019-04-14T15:46:28.609Z,13.50
2019-04-14T15:48:55.897Z,12.73
2019-04-14T15:51:23.188Z,12.03
2019-04-14T15:53:50.481Z,11.83
2019-04-14T15:56:29.765Z,12.50
2019-04-14T15:59:05.112Z,11.83
2019-04-14T16:01:50.218Z,11.73
2019-04-14T16:04:37.051Z,13.23
2019-04-14T16:07:32.721Z,11.33
2019-04-14T16:10:11.221Z,12.23
2019-04-14T16:12:58.062Z,11.97
2019-04-14T16:15:43.668Z,11.77
2019-04-14T16:18:31.759Z,12.03
2019-04-14T16:20:59.088Z,11.90
2019-04-14T16:23:26.401Z,12.20
2019-04-14T16:26:16.077Z,11.63
2019-04-14T16:29:02.977Z,11.83
2019-04-14T16:31:44.101Z,11.40
2019-04-14T16:34:14.706Z,11.93
2019-04-14T16:36:43.077Z,12.63
2019-04-14T16:39:10.325Z,12.60
2019-04-14T16:41:37.635Z,12.67
2019-04-14T16:44:04.913Z,12.10
2019-04-14T16:46:32.210Z,12.30
2019-04-14T16:48:59.431Z,12.30
2019-04-14T16:51:31.093Z,11.80
2019-04-14T16:54:03.223Z,12.67
2019-04-14T16:56:48.701Z,12.23
2019-04-14T16:59:16.377Z,12.53
2019-04-14T17:01:45.757Z,12.20
2019-04-14T17:04:13.060Z,11.87
2019-04-14T17:06:40.396Z,12.30
2019-04-14T17:09:07.940Z,13.63
2019-04-14T17:11:35.289Z,12.23
2019-04-14T17:14:06.047Z,13.27
2019-04-14T17:16:43.665Z,12.63
2019-04-14T17:19:15.916Z,13.03
2019-04-14T17:21:50.843Z,12.67
2019-04-14T17:24:40.758Z,12.63
2019-04-14T17:27:28.006Z,12.97
2019-04-14T17:30:05.410Z,12.43
2019-04-14T17:32:55.039Z,12.80
2019-04-14T17:35:56.779Z,11.97
2019-04-14T17:38:35.765Z,12.87
2019-04-14T17:41:09.569Z,12.87
2019-04-14T17:43:47.577Z,13.30
2019-04-14T17:46:34.718Z,13.07
2019-04-14T17:49:25.189Z,12.33
2019-04-14T17:52:12.121Z,12.07
2019-04-14T17:54:59.004Z,11.40
2019-04-14T17:57:57.973Z,12.07
2019-04-14T18:00:30.965Z,12.40
2019-04-14T18:03:01.607Z,10.77
2019-04-14T18:05:42.085Z,12.20
2019-04-14T18:08:28.934Z,11.03
2019-04-14T18:11:08.001Z,10.33
2019-04-14T18:13:54.837Z,11.37
2019-04-14T18:16:32.851Z,10.53
2019-04-14T18:19:13.573Z,10.20
2019-04-14T18:21:44.251Z,10.67
2019-04-14T18:24:11.646Z,10.27
2019-04-14T18:26:38.820Z,11.47
2019-04-14T18:29:26.937Z,12.70
2019-04-14T18:32:12.342Z,13.07
2019-04-14T18:34:45.150Z,12.97
2019-04-14T18:37:27.180Z,12.63
2019-04-14T18:40:16.884Z,13.57
2019-04-14T18:42:58.575Z,11.73
2019-04-14T18:45:48.648Z,12.70
2019-04-14T18:48:35.548Z,12.50
2019-04-14T18:51:22.374Z,12.73
2019-04-14T18:54:08.158Z,12.67
2019-04-14T18:56:54.993Z,13.03
2019-04-14T18:59:40.320Z,13.70
2019-04-14T19:02:08.896Z,13.73
2019-04-14T19:04:36.119Z,12.97
2019-04-14T19:07:03.454Z,13.03
2019-04-14T19:09:30.780Z,12.73
2019-04-14T19:12:23.144Z,13.60
2019-04-14T19:14:53.613Z,13.37
2019-04-14T19:17:40.449Z,13.43
2019-04-14T19:20:07.768Z,12.67
2019-04-14T19:22:34.992Z,13.30
2019-04-14T19:25:08.376Z,13.30
2019-04-14T19:27:31.643Z,13.10
2019-04-14T19:29:58.956Z,13.67
2019-04-14T19:32:26.265Z,13.30
2019-04-14T19:34:53.600Z,13.17
2019-04-14T19:37:21.070Z,13.30
2019-04-14T19:39:48.393Z,13.10
2019-04-14T19:42:15.803Z,13.47
2019-04-14T19:44:43.106Z,14.20
2019-04-14T19:47:10.320Z,13.00
2019-04-14T19:49:37.632Z,13.37
2019-04-14T19:52:04.992Z,13.27
2019-04-14T19:54:32.312Z,12.70
2019-04-14T19:56:59.651Z,13.30
2019-04-14T19:59:27.020Z,11.83
2019-04-14T20:01:54.362Z,11.70
2019-04-14T20:04:21.698Z,14.43
2019-04-14T20:06:49.052Z,12.90
2019-04-14T20:09:16.373Z,11.80
2019-04-14T20:11:43.686Z,11.33
2019-04-14T20:14:11.014Z,11.00
2019-04-14T20:16:45.600Z,10.97
2019-04-14T20:19:30.584Z,10.57
2019-04-14T20:22:16.150Z,10.83
2019-04-14T20:25:11.894Z,10.90
2019-04-14T20:27:44.618Z,11.33
2019-04-14T20:30:16.648Z,10.50
2019-04-14T20:32:44.160Z,10.93
2019-04-14T20:35:12.245Z,10.27
2019-04-14T20:37:39.643Z,10.53
2019-04-14T20:40:07.685Z,11.17
2019-04-14T20:42:36.593Z,11.80
2019-04-14T20:45:05.639Z,11.13
2019-04-14T20:47:32.972Z,11.67
2019-04-14T20:50:00.386Z,11.17
2019-04-14T20:52:27.687Z,11.17
2019-04-14T20:54:55.019Z,11.67
2019-04-14T20:57:22.251Z,11.37
2019-04-14T20:59:49.597Z,12.10
2019-04-14T21:02:36.553Z,10.97
2019-04-14T21:05:22.297Z,10.70
2019-04-14T21:08:21.831Z,11.67
2019-04-14T21:11:02.664Z,11.53
2019-04-14T21:13:58.685Z,11.43
2019-04-14T21:16:36.012Z,11.53
2019-04-14T21:19:08.696Z,11.07
2019-04-14T21:21:49.504Z,12.40
2019-04-14T21:24:48.233Z,12.13
2019-04-14T21:27:35.851Z,11.80
2019-04-14T21:30:36.136Z,12.28
2019-04-14T21:33:18.466Z,11.50
2019-04-14T21:35:52.948Z,11.83
2019-04-14T21:38:38.728Z,12.68
2019-04-14T21:41:10.982Z,12.13
2019-04-14T21:43:39.386Z,12.67
2019-04-14T21:46:06.637Z,12.23
2019-04-14T21:48:33.975Z,12.60
2019-04-14T21:51:01.197Z,12.30
2019-04-14T21:53:28.580Z,13.08
2019-04-14T21:55:56.016Z,13.00
2019-04-14T21:58:48.622Z,12.63
2019-04-14T22:01:50.636Z,12.00
2019-04-14T22:04:52.704Z,13.18
2019-04-14T22:07:42.121Z,12.15
2019-04-14T22:10:18.143Z,12.68
2019-04-14T22:12:47.096Z,11.48
2019-04-14T22:15:14.342Z,13.10
2019-04-14T22:17:41.690Z,11.48
2019-04-14T22:20:09.001Z,12.13
2019-04-14T22:22:36.234Z,11.97
2019-04-14T22:25:03.910Z,11.75
2019-04-14T22:27:31.232Z,11.68
2019-04-14T22:29:58.542Z,11.97
2019-04-14T22:32:25.869Z,11.12
2019-04-14T22:34:53.180Z,11.00
2019-04-14T22:37:20.566Z,10.53
2019-04-14T22:39:47.858Z,10.45
2019-04-14T22:42:15.205Z,11.78
2019-04-14T22:44:42.526Z,11.45
2019-04-14T22:47:09.767Z,11.55
2019-04-14T22:49:37.083Z,11.05
2019-04-14T22:52:04.821Z,11.22
2019-04-14T22:54:32.186Z,11.25
2019-04-14T22:56:59.422Z,10.60
2019-04-14T22:59:26.760Z,10.40
2019-04-14T23:02:01.575Z,10.58
2019-04-14T23:04:44.316Z,10.38
2019-04-14T23:07:42.870Z,10.20
2019-04-14T23:10:25.615Z,10.13
2019-04-14T23:13:03.699Z,9.70
2019-04-14T23:15:50.651Z,9.48
2019-04-14T23:18:28.566Z,9.85
2019-04-14T23:21:04.500Z,10.23
2019-04-14T23:23:38.126Z,9.93
2019-04-14T23:26:05.440Z,10.63
2019-04-14T23:28:32.772Z,9.75
2019-04-14T23:31:01.754Z,10.35
2019-04-14T23:33:29.262Z,10.10
2019-04-14T23:35:56.582Z,10.10
2019-04-14T23:38:23.884Z,9.50
2019-04-14T23:40:51.260Z,9.98
2019-04-14T23:43:18.489Z,10.30
2019-04-14T23:45:45.902Z,9.00
2019-04-14T23:48:13.260Z,9.53
2019-04-14T23:50:40.641Z,9.15
2019-04-14T23:53:07.962Z,9.40
2019-04-14T23:55:35.303Z,10.35
2019-04-14T23:58:02.626Z,9.43
